sensor_id;sensor_type;location;lat;lon;timestamp;P1;durP1;ratioP1;P2;durP2;ratioP2
49820;SDS011;36893;52.520;13.450;2022-10-13T00:08:19;6.75;;;1.48;;
49820;SDS011;36893;52.520;13.450;2022-10-13T00:18:21;4.50;;;1.70;;
49820;SDS011;36893;52.520;13.450;2022-10-13T00:28:21;5.07;;;1.93;;
49820;SDS011;36893;52.520;13.450;2022-10-13T00:38:22;3.30;;;1.30;;
49820;SDS011;36893;52.520;13.450;2022-10-13T00:48:24;5.50;;;1.10;;
49820;SDS011;36893;52.520;13.450;2022-10-13T00:58:27;4.72;;;1.25;;
49820;SDS011;36893;52.520;13.450;2022-10-13T01:08:30;2.13;;;1.00;;
49820;SDS011;36893;52.520;13.450;2022-10-13T01:18:50;3.40;;;1.00;;
49820;SDS011;36893;52.520;13.450;2022-10-13T01:50:14;8.87;;;2.17;;
49820;SDS011;36893;52.520;13.450;2022-10-13T02:00:18;2.70;;;1.37;;
49820;SDS011;36893;52.520;13.450;2022-10-13T02:10:44;3.90;;;1.43;;
49820;SDS011;36893;52.520;13.450;2022-10-13T02:20:57;1.92;;;1.10;;
49820;SDS011;36893;52.520;13.450;2022-10-13T02:31:00;2.70;;;1.20;;
49820;SDS011;36893;52.520;13.450;2022-10-13T02:41:01;3.83;;;1.73;;
49820;SDS011;36893;52.520;13.450;2022-10-13T02:51:01;4.03;;;1.50;;
49820;SDS011;36893;52.520;13.450;2022-10-13T03:01:06;3.63;;;1.20;;
49820;SDS011;36893;52.520;13.450;2022-10-13T03:11:09;3.15;;;1.30;;
49820;SDS011;36893;52.520;13.450;2022-10-13T03:21:10;3.57;;;1.70;;
49820;SDS011;36893;52.520;13.450;2022-10-13T03:31:11;1.70;;;1.07;;
49820;SDS011;36893;52.520;13.450;2022-10-13T03:41:12;1.97;;;1.10;;
49820;SDS011;36893;52.520;13.450;2022-10-13T03:51:16;2.75;;;1.30;;
49820;SDS011;36893;52.520;13.450;2022-10-13T04:11:25;2.45;;;1.30;;
49820;SDS011;36893;52.520;13.450;2022-10-13T04:21:26;3.40;;;1.33;;
49820;SDS011;36893;52.520;13.450;2022-10-13T04:31:29;2.30;;;1.20;;
49820;SDS011;36893;52.520;13.450;2022-10-13T04:41:30;1.73;;;1.10;;
49820;SDS011;36893;52.520;13.450;2022-10-13T04:51:31;3.73;;;1.50;;
49820;SDS011;36893;52.520;13.450;2022-10-13T05:01:32;6.70;;;1.90;;
49820;SDS011;36893;52.520;13.450;2022-10-13T05:11:33;5.00;;;1.60;;
49820;SDS011;36893;52.520;13.450;2022-10-13T05:21:33;2.50;;;1.07;;
49820;SDS011;36893;52.520;13.450;2022-10-13T05:31:34;2.20;;;1.37;;
49820;SDS011;36893;52.520;13.450;2022-10-13T05:41:35;2.33;;;1.35;;
49820;SDS011;36893;52.520;13.450;2022-10-13T05:51:42;3.72;;;1.35;;
49820;SDS011;36893;52.520;13.450;2022-10-13T06:01:49;3.17;;;1.42;;
49820;SDS011;36893;52.520;13.450;2022-10-13T06:11:51;3.70;;;1.55;;
49820;SDS011;36893;52.520;13.450;2022-10-13T06:21:52;13.53;;;1.87;;
49820;SDS011;36893;52.520;13.450;2022-10-13T06:31:52;7.03;;;1.63;;
49820;SDS011;36893;52.520;13.450;2022-10-13T06:41:53;10.33;;;1.93;;
49820;SDS011;36893;52.520;13.450;2022-10-13T06:51:54;4.43;;;2.25;;
49820;SDS011;36893;52.520;13.450;2022-10-13T07:01:54;6.47;;;2.40;;
49820;SDS011;36893;52.520;13.450;2022-10-13T07:11:55;13.57;;;3.20;;
49820;SDS011;36893;52.520;13.450;2022-10-13T07:21:56;7.30;;;2.30;;
49820;SDS011;36893;52.520;13.450;2022-10-13T07:31:56;5.23;;;2.00;;
49820;SDS011;36893;52.520;13.450;2022-10-13T07:41:57;9.00;;;2.40;;
49820;SDS011;36893;52.520;13.450;2022-10-13T07:51:58;11.30;;;2.23;;
49820;SDS011;36893;52.520;13.450;2022-10-13T08:01:58;18.87;;;2.53;;
49820;SDS011;36893;52.520;13.450;2022-10-13T08:12:01;5.37;;;2.60;;
49820;SDS011;36893;52.520;13.450;2022-10-13T08:22:02;5.13;;;1.70;;
49820;SDS011;36893;52.520;13.450;2022-10-13T08:32:02;7.33;;;2.03;;
49820;SDS011;36893;52.520;13.450;2022-10-13T08:42:10;7.10;;;2.50;;
49820;SDS011;36893;52.520;13.450;2022-10-13T08:52:21;8.45;;;2.15;;
49820;SDS011;36893;52.520;13.450;2022-10-13T09:02:28;3.75;;;1.92;;
49820;SDS011;36893;52.520;13.450;2022-10-13T09:12:30;11.13;;;2.20;;
49820;SDS011;36893;52.520;13.450;2022-10-13T09:22:33;5.93;;;1.73;;
49820;SDS011;36893;52.520;13.450;2022-10-13T09:32:36;3.33;;;1.70;;
49820;SDS011;36893;52.520;13.450;2022-10-13T09:42:39;6.00;;;1.80;;
49820;SDS011;36893;52.520;13.450;2022-10-13T09:52:40;7.33;;;2.13;;
49820;SDS011;36893;52.520;13.450;2022-10-13T10:12:53;3.63;;;1.80;;
49820;SDS011;36893;52.520;13.450;2022-10-13T10:23:28;9.87;;;2.03;;
49820;SDS011;36893;52.520;13.450;2022-10-13T10:44:38;6.25;;;2.00;;
49820;SDS011;36893;52.520;13.450;2022-10-13T10:54:55;4.63;;;1.88;;
49820;SDS011;36893;52.520;13.450;2022-10-13T11:05:19;5.22;;;1.80;;
49820;SDS011;36893;52.520;13.450;2022-10-13T11:15:22;3.50;;;1.73;;
49820;SDS011;36893;52.520;13.450;2022-10-13T11:25:40;4.70;;;1.90;;
49820;SDS011;36893;52.520;13.450;2022-10-13T11:35:45;5.18;;;2.13;;
49820;SDS011;36893;52.520;13.450;2022-10-13T11:45:53;4.40;;;2.07;;
49820;SDS011;36893;52.520;13.450;2022-10-13T11:56:18;5.28;;;1.98;;
49820;SDS011;36893;52.520;13.450;2022-10-13T12:06:24;6.05;;;2.40;;
49820;SDS011;36893;52.520;13.450;2022-10-13T12:16:33;7.60;;;2.55;;
49820;SDS011;36893;52.520;13.450;2022-10-13T12:26:34;7.33;;;2.77;;
49820;SDS011;36893;52.520;13.450;2022-10-13T12:36:35;4.63;;;2.73;;
49820;SDS011;36893;52.520;13.450;2022-10-13T12:46:37;3.30;;;2.10;;
49820;SDS011;36893;52.520;13.450;2022-10-13T12:56:51;7.70;;;2.38;;
49820;SDS011;36893;52.520;13.450;2022-10-13T13:06:57;6.45;;;2.85;;
49820;SDS011;36893;52.520;13.450;2022-10-13T13:27:19;7.20;;;2.97;;
49820;SDS011;36893;52.520;13.450;2022-10-13T13:37:36;5.05;;;2.03;;
49820;SDS011;36893;52.520;13.450;2022-10-13T13:47:39;7.57;;;2.65;;
49820;SDS011;36893;52.520;13.450;2022-10-13T13:57:40;4.47;;;2.03;;
49820;SDS011;36893;52.520;13.450;2022-10-13T14:07:42;4.65;;;2.30;;
49820;SDS011;36893;52.520;13.450;2022-10-13T14:17:43;8.73;;;2.50;;
49820;SDS011;36893;52.520;13.450;2022-10-13T14:27:43;3.90;;;1.93;;
49820;SDS011;36893;52.520;13.450;2022-10-13T14:37:44;6.63;;;2.28;;
49820;SDS011;36893;52.520;13.450;2022-10-13T14:47:45;4.90;;;2.30;;
49820;SDS011;36893;52.520;13.450;2022-10-13T14:57:46;5.10;;;1.83;;
49820;SDS011;36893;52.520;13.450;2022-10-13T15:07:47;4.55;;;2.05;;
49820;SDS011;36893;52.520;13.450;2022-10-13T15:17:48;4.63;;;2.50;;
49820;SDS011;36893;52.520;13.450;2022-10-13T15:27:48;4.57;;;2.10;;
49820;SDS011;36893;52.520;13.450;2022-10-13T15:37:49;4.57;;;2.00;;
49820;SDS011;36893;52.520;13.450;2022-10-13T15:47:50;3.77;;;2.33;;
49820;SDS011;36893;52.520;13.450;2022-10-13T15:57:51;4.97;;;2.08;;
49820;SDS011;36893;52.520;13.450;2022-10-13T16:07:52;6.25;;;2.25;;
49820;SDS011;36893;52.520;13.450;2022-10-13T16:17:53;4.90;;;2.10;;
49820;SDS011;36893;52.520;13.450;2022-10-13T16:27:53;5.47;;;2.10;;
49820;SDS011;36893;52.520;13.450;2022-10-13T16:37:54;3.90;;;1.90;;
49820;SDS011;36893;52.520;13.450;2022-10-13T16:47:55;8.30;;;1.87;;
49820;SDS011;36893;52.520;13.450;2022-10-13T16:57:55;4.00;;;2.20;;
49820;SDS011;36893;52.520;13.450;2022-10-13T17:07:56;5.27;;;2.37;;
49820;SDS011;36893;52.520;13.450;2022-10-13T17:17:56;5.80;;;2.97;;
49820;SDS011;36893;52.520;13.450;2022-10-13T17:27:57;7.73;;;2.17;;
49820;SDS011;36893;52.520;13.450;2022-10-13T17:37:58;6.67;;;2.77;;
49820;SDS011;36893;52.520;13.450;2022-10-13T17:47:58;6.43;;;2.23;;
49820;SDS011;36893;52.520;13.450;2022-10-13T17:57:59;8.25;;;3.22;;
49820;SDS011;36893;52.520;13.450;2022-10-13T18:08:00;6.43;;;2.50;;
49820;SDS011;36893;52.520;13.450;2022-10-13T18:18:01;5.53;;;2.65;;
49820;SDS011;36893;52.520;13.450;2022-10-13T18:28:01;5.63;;;2.70;;
49820;SDS011;36893;52.520;13.450;2022-10-13T18:38:02;11.53;;;3.03;;
49820;SDS011;36893;52.520;13.450;2022-10-13T18:48:02;8.90;;;3.20;;
49820;SDS011;36893;52.520;13.450;2022-10-13T18:58:03;7.00;;;2.73;;
49820;SDS011;36893;52.520;13.450;2022-10-13T19:08:04;10.00;;;3.40;;
49820;SDS011;36893;52.520;13.450;2022-10-13T19:18:08;5.75;;;2.67;;
49820;SDS011;36893;52.520;13.450;2022-10-13T19:28:09;9.40;;;2.67;;
49820;SDS011;36893;52.520;13.450;2022-10-13T19:38:11;8.45;;;3.15;;
49820;SDS011;36893;52.520;13.450;2022-10-13T19:48:13;8.93;;;3.35;;
49820;SDS011;36893;52.520;13.450;2022-10-13T19:58:15;8.52;;;3.45;;
49820;SDS011;36893;52.520;13.450;2022-10-13T20:08:16;7.78;;;3.78;;
49820;SDS011;36893;52.520;13.450;2022-10-13T20:18:17;9.65;;;3.42;;
49820;SDS011;36893;52.520;13.450;2022-10-13T20:28:18;6.40;;;3.27;;
49820;SDS011;36893;52.520;13.450;2022-10-13T20:38:20;9.23;;;3.28;;
49820;SDS011;36893;52.520;13.450;2022-10-13T20:48:21;10.15;;;4.43;;
49820;SDS011;36893;52.520;13.450;2022-10-13T20:58:23;6.40;;;3.70;;
49820;SDS011;36893;52.520;13.450;2022-10-13T21:08:27;7.22;;;3.65;;
49820;SDS011;36893;52.520;13.450;2022-10-13T21:18:29;8.27;;;3.75;;
49820;SDS011;36893;52.520;13.450;2022-10-13T21:28:30;7.67;;;3.43;;
49820;SDS011;36893;52.520;13.450;2022-10-13T21:38:31;8.00;;;4.07;;
49820;SDS011;36893;52.520;13.450;2022-10-13T21:48:31;6.77;;;3.77;;
49820;SDS011;36893;52.520;13.450;2022-10-13T21:58:32;8.13;;;4.10;;
49820;SDS011;36893;52.520;13.450;2022-10-13T22:08:34;6.88;;;3.58;;
49820;SDS011;36893;52.520;13.450;2022-10-13T22:18:37;8.52;;;3.72;;
49820;SDS011;36893;52.520;13.450;2022-10-13T22:28:38;12.10;;;4.37;;
49820;SDS011;36893;52.520;13.450;2022-10-13T22:38:39;7.57;;;3.97;;
49820;SDS011;36893;52.520;13.450;2022-10-13T22:48:39;7.30;;;4.20;;
49820;SDS011;36893;52.520;13.450;2022-10-13T22:58:40;11.23;;;4.20;;
49820;SDS011;36893;52.520;13.450;2022-10-13T23:08:42;9.15;;;4.25;;
49820;SDS011;36893;52.520;13.450;2022-10-13T23:18:43;7.43;;;3.25;;
49820;SDS011;36893;52.520;13.450;2022-10-13T23:28:43;7.60;;;3.70;;
49820;SDS011;36893;52.520;13.450;2022-10-13T23:38:44;8.60;;;4.67;;
49820;SDS011;36893;52.520;13.450;2022-10-13T23:48:45;8.67;;;3.93;;
49820;SDS011;36893;52.520;13.450;2022-10-13T23:58:46;9.63;;;4.40;;
